sensor_id;sensor_type;location;lat;lon;timestamp;pressure;altitude;pressure_sealevel;temperature;humidity
41596;BME280;27283;52.504;13.358;2023-04-08T00:01:24;101692.06;;;4.74;100.00
41596;BME280;27283;52.504;13.358;2023-04-08T00:03:59;101691.22;;;4.73;100.00
41596;BME280;27283;52.504;13.358;2023-04-08T00:06:32;101690.81;;;4.79;100.00
41596;BME280;27283;52.504;13.358;2023-04-08T00:09:05;101690.28;;;4.87;100.00
41596;BME280;27283;52.504;13.358;2023-04-08T00:11:38;101695.50;;;4.89;100.00
41596;BME280;27283;52.504;13.358;2023-04-08T00:14:10;101701.38;;;4.94;100.00
41596;BME280;27283;52.504;13.358;2023-04-08T00:16:43;101691.16;;;4.88;100.00
41596;BME280;27283;52.504;13.358;2023-04-08T00:19:18;101703.81;;;4.84;100.00
41596;BME280;27283;52.504;13.358;2023-04-08T00:21:51;101704.13;;;4.79;100.00
41596;BME280;27283;52.504;13.358;2023-04-08T00:24:24;101699.94;;;4.75;100.00
41596;BME280;27283;52.504;13.358;2023-04-08T00:26:57;101693.56;;;4.78;100.00
41596;BME280;27283;52.504;13.358;2023-04-08T00:29:30;101700.16;;;4.72;100.00
41596;BME280;27283;52.504;13.358;2023-04-08T00:32:03;101694.41;;;4.78;100.00
41596;BME280;27283;52.504;13.358;2023-04-08T00:34:38;101692.81;;;4.89;100.00
41596;BME280;27283;52.504;13.358;2023-04-08T00:37:11;101690.47;;;4.84;100.00
41596;BME280;27283;52.504;13.358;2023-04-08T00:39:44;101701.66;;;4.76;100.00
41596;BME280;27283;52.504;13.358;2023-04-08T00:42:16;101704.22;;;4.78;100.00
41596;BME280;27283;52.504;13.358;2023-04-08T00:44:49;101707.63;;;4.80;100.00
41596;BME280;27283;52.504;13.358;2023-04-08T00:47:22;101698.91;;;4.78;100.00
41596;BME280;27283;52.504;13.358;2023-04-08T00:49:57;101695.59;;;4.74;100.00
41596;BME280;27283;52.504;13.358;2023-04-08T00:52:45;101690.47;;;4.84;100.00
41596;BME280;27283;52.504;13.358;2023-04-08T00:55:17;101695.50;;;4.89;100.00
41596;BME280;27283;52.504;13.358;2023-04-08T00:57:50;101693.59;;;4.91;100.00
41596;BME280;27283;52.504;13.358;2023-04-08T01:00:23;101693.34;;;4.81;100.00
41596;BME280;27283;52.504;13.358;2023-04-08T01:03:03;101687.41;;;4.90;100.00
41596;BME280;27283;52.504;13.358;2023-04-08T01:05:45;101691.34;;;4.85;100.00
41596;BME280;27283;52.504;13.358;2023-04-08T01:08:23;101699.47;;;4.83;100.00
41596;BME280;27283;52.504;13.358;2023-04-08T01:11:01;101692.09;;;4.87;100.00
41596;BME280;27283;52.504;13.358;2023-04-08T01:13:53;101703.28;;;4.79;100.00
41596;BME280;27283;52.504;13.358;2023-04-08T01:16:27;101707.00;;;4.76;100.00
41596;BME280;27283;52.504;13.358;2023-04-08T01:19:00;101709.56;;;4.65;100.00
41596;BME280;27283;52.504;13.358;2023-04-08T01:21:36;101710.41;;;4.66;100.00
41596;BME280;27283;52.504;13.358;2023-04-08T01:24:15;101706.25;;;4.74;100.00
41596;BME280;27283;52.504;13.358;2023-04-08T01:26:52;101709.25;;;4.83;100.00
41596;BME280;27283;52.504;13.358;2023-04-08T01:29:25;101708.63;;;4.79;100.00
41596;BME280;27283;52.504;13.358;2023-04-08T01:31:58;101708.50;;;4.81;100.00
41596;BME280;27283;52.504;13.358;2023-04-08T01:34:33;101711.81;;;4.84;100.00
41596;BME280;27283;52.504;13.358;2023-04-08T01:37:07;101714.16;;;4.89;100.00
41596;BME280;27283;52.504;13.358;2023-04-08T01:39:51;101713.00;;;4.93;100.00
41596;BME280;27283;52.504;13.358;2023-04-08T01:42:27;101713.50;;;4.98;100.00
41596;BME280;27283;52.504;13.358;2023-04-08T01:45:00;101715.03;;;4.89;100.00
41596;BME280;27283;52.504;13.358;2023-04-08T01:47:35;101715.72;;;4.78;100.00
41596;BME280;27283;52.504;13.358;2023-04-08T01:50:09;101719.91;;;4.83;100.00
41596;BME280;27283;52.504;13.358;2023-04-08T01:52:43;101726.38;;;4.78;100.00
41596;BME280;27283;52.504;13.358;2023-04-08T01:55:16;101726.28;;;4.67;100.00
41596;BME280;27283;52.504;13.358;2023-04-08T01:58:11;101729.03;;;4.66;100.00
41596;BME280;27283;52.504;13.358;2023-04-08T02:00:47;101717.03;;;4.73;100.00
41596;BME280;27283;52.504;13.358;2023-04-08T02:03:22;101720.34;;;4.89;100.00
41596;BME280;27283;52.504;13.358;2023-04-08T02:06:03;101711.16;;;4.81;100.00
41596;BME280;27283;52.504;13.358;2023-04-08T02:08:36;101711.06;;;4.82;100.00
41596;BME280;27283;52.504;13.358;2023-04-08T02:11:08;101711.16;;;4.81;100.00
41596;BME280;27283;52.504;13.358;2023-04-08T02:13:43;101716.81;;;4.89;100.00
41596;BME280;27283;52.504;13.358;2023-04-08T02:16:22;101714.72;;;4.94;100.00
41596;BME280;27283;52.504;13.358;2023-04-08T02:18:57;101728.66;;;4.97;100.00
41596;BME280;27283;52.504;13.358;2023-04-08T02:21:43;101738.78;;;5.05;100.00
41596;BME280;27283;52.504;13.358;2023-04-08T02:24:18;101740.94;;;5.00;100.00
41596;BME280;27283;52.504;13.358;2023-04-08T02:26:51;101737.84;;;5.06;100.00
41596;BME280;27283;52.504;13.358;2023-04-08T02:30:09;101742.72;;;5.00;100.00
41596;BME280;27283;52.504;13.358;2023-04-08T02:33:00;101746.47;;;4.97;100.00
41596;BME280;27283;52.504;13.358;2023-04-08T02:35:35;101739.75;;;4.91;100.00
41596;BME280;27283;52.504;13.358;2023-04-08T02:38:08;101737.19;;;4.90;100.00
41596;BME280;27283;52.504;13.358;2023-04-08T02:40:41;101737.41;;;4.87;100.00
41596;BME280;27283;52.504;13.358;2023-04-08T02:43:14;101747.63;;;4.93;100.00
41596;BME280;27283;52.504;13.358;2023-04-08T02:45:49;101747.00;;;5.02;100.00
41596;BME280;27283;52.504;13.358;2023-04-08T02:48:21;101746.56;;;5.08;100.00
41596;BME280;27283;52.504;13.358;2023-04-08T02:50:53;101747.09;;;5.01;100.00
41596;BME280;27283;52.504;13.358;2023-04-08T02:53:26;101753.59;;;4.96;100.00
41596;BME280;27283;52.504;13.358;2023-04-08T02:55:58;101745.41;;;5.12;100.00
41596;BME280;27283;52.504;13.358;2023-04-08T02:58:30;101756.41;;;5.08;100.00
41596;BME280;27283;52.504;13.358;2023-04-08T03:01:07;101757.25;;;4.95;100.00
41596;BME280;27283;52.504;13.358;2023-04-08T03:03:40;101753.91;;;4.92;100.00
41596;BME280;27283;52.504;13.358;2023-04-08T03:06:12;101755.75;;;5.17;100.00
41596;BME280;27283;52.504;13.358;2023-04-08T03:08:45;101762.25;;;5.13;100.00
41596;BME280;27283;52.504;13.358;2023-04-08T03:11:17;101756.06;;;5.00;100.00
41596;BME280;27283;52.504;13.358;2023-04-08T03:13:50;101755.03;;;5.15;100.00
41596;BME280;27283;52.504;13.358;2023-04-08T03:16:25;101758.31;;;5.19;100.00
41596;BME280;27283;52.504;13.358;2023-04-08T03:18:57;101763.00;;;5.28;100.00
41596;BME280;27283;52.504;13.358;2023-04-08T03:21:29;101766.84;;;5.24;100.00
41596;BME280;27283;52.504;13.358;2023-04-08T03:24:03;101763.75;;;5.17;100.00
41596;BME280;27283;52.504;13.358;2023-04-08T03:26:35;101769.41;;;5.12;100.00
41596;BME280;27283;52.504;13.358;2023-04-08T03:29:07;101776.34;;;5.15;100.00
41596;BME280;27283;52.504;13.358;2023-04-08T03:31:42;101775.94;;;5.21;100.00
41596;BME280;27283;52.504;13.358;2023-04-08T03:34:15;101772.72;;;5.03;100.00
41596;BME280;27283;52.504;13.358;2023-04-08T03:36:47;101779.44;;;5.22;100.00
41596;BME280;27283;52.504;13.358;2023-04-08T03:39:19;101779.13;;;5.26;100.00
41596;BME280;27283;52.504;13.358;2023-04-08T03:41:52;101780.53;;;5.32;100.00
41596;BME280;27283;52.504;13.358;2023-04-08T03:44:25;101777.84;;;5.45;100.00
41596;BME280;27283;52.504;13.358;2023-04-08T03:46:59;101785.41;;;5.38;100.00
41596;BME280;27283;52.504;13.358;2023-04-08T03:49:32;101787.25;;;5.38;100.00
41596;BME280;27283;52.504;13.358;2023-04-08T03:52:04;101790.13;;;5.47;100.00
41596;BME280;27283;52.504;13.358;2023-04-08T03:54:37;101788.19;;;5.49;100.00
41596;BME280;27283;52.504;13.358;2023-04-08T03:57:09;101779.97;;;5.40;100.00
41596;BME280;27283;52.504;13.358;2023-04-08T03:59:43;101779.13;;;5.26;100.00
41596;BME280;27283;52.504;13.358;2023-04-08T04:02:18;101799.81;;;5.36;100.00
41596;BME280;27283;52.504;13.358;2023-04-08T04:04:51;101792.47;;;5.26;100.00
41596;BME280;27283;52.504;13.358;2023-04-08T04:07:24;101795.69;;;5.31;100.00
41596;BME280;27283;52.504;13.358;2023-04-08T04:09:57;101802.47;;;5.36;100.00
41596;BME280;27283;52.504;13.358;2023-04-08T04:12:30;101810.38;;;5.37;100.00
41596;BME280;27283;52.504;13.358;2023-04-08T04:15:03;101813.72;;;5.41;100.00
41596;BME280;27283;52.504;13.358;2023-04-08T04:17:38;101808.69;;;5.36;100.00
41596;BME280;27283;52.504;13.358;2023-04-08T04:20:12;101813.50;;;5.44;100.00
41596;BME280;27283;52.504;13.358;2023-04-08T04:22:44;101803.97;;;5.14;100.00
41596;BME280;27283;52.504;13.358;2023-04-08T04:25:17;101804.72;;;5.29;100.00
41596;BME280;27283;52.504;13.358;2023-04-08T04:27:49;101811.97;;;5.14;100.00
41596;BME280;27283;52.504;13.358;2023-04-08T04:30:22;101814.41;;;5.17;100.00
41596;BME280;27283;52.504;13.358;2023-04-08T04:32:57;101821.16;;;5.23;100.00
41596;BME280;27283;52.504;13.358;2023-04-08T04:35:30;101822.56;;;5.28;100.00
41596;BME280;27283;52.504;13.358;2023-04-08T04:38:02;101823.81;;;5.36;100.00
41596;BME280;27283;52.504;13.358;2023-04-08T04:40:38;101822.56;;;5.41;100.00
41596;BME280;27283;52.504;13.358;2023-04-08T04:43:12;101830.34;;;5.31;100.00
41596;BME280;27283;52.504;13.358;2023-04-08T04:45:45;101831.41;;;5.42;100.00
41596;BME280;27283;52.504;13.358;2023-04-08T04:48:19;101831.41;;;5.42;100.00
41596;BME280;27283;52.504;13.358;2023-04-08T04:50:55;101832.78;;;5.47;100.00
41596;BME280;27283;52.504;13.358;2023-04-08T04:53:27;101848.16;;;5.44;100.00
41596;BME280;27283;52.504;13.358;2023-04-08T04:56:00;101841.00;;;5.31;100.00
41596;BME280;27283;52.504;13.358;2023-04-08T04:58:32;101840.25;;;5.29;100.00
41596;BME280;27283;52.504;13.358;2023-04-08T05:01:05;101841.53;;;5.37;100.00
41596;BME280;27283;52.504;13.358;2023-04-08T05:03:39;101854.66;;;5.40;100.00
41596;BME280;27283;52.504;13.358;2023-04-08T05:06:12;101853.81;;;5.52;100.00
41596;BME280;27283;52.504;13.358;2023-04-08T05:08:44;101856.38;;;5.54;100.00
41596;BME280;27283;52.504;13.358;2023-04-08T05:11:17;101860.44;;;5.59;100.00
41596;BME280;27283;52.504;13.358;2023-04-08T05:13:49;101865.88;;;5.58;100.00
41596;BME280;27283;52.504;13.358;2023-04-08T05:16:22;101862.59;;;5.54;100.00
41596;BME280;27283;52.504;13.358;2023-04-08T05:18:56;101860.75;;;5.55;100.00
41596;BME280;27283;52.504;13.358;2023-04-08T05:21:30;101869.59;;;5.55;100.00
41596;BME280;27283;52.504;13.358;2023-04-08T05:24:03;101870.47;;;5.56;100.00
41596;BME280;27283;52.504;13.358;2023-04-08T05:26:36;101875.41;;;5.62;100.00
41596;BME280;27283;52.504;13.358;2023-04-08T05:29:08;101871.84;;;5.61;100.00
41596;BME280;27283;52.504;13.358;2023-04-08T05:31:41;101876.25;;;5.62;100.00
41596;BME280;27283;52.504;13.358;2023-04-08T05:34:16;101877.28;;;5.60;100.00
41596;BME280;27283;52.504;13.358;2023-04-08T05:36:52;101863.44;;;5.55;100.00
41596;BME280;27283;52.504;13.358;2023-04-08T05:39:25;101878.69;;;5.53;100.00
41596;BME280;27283;52.504;13.358;2023-04-08T05:41:58;101891.72;;;5.57;100.00
41596;BME280;27283;52.504;13.358;2023-04-08T05:44:30;101894.38;;;5.57;100.00
41596;BME280;27283;52.504;13.358;2023-04-08T05:47:02;101899.50;;;5.60;100.00
41596;BME280;27283;52.504;13.358;2023-04-08T05:49:37;101901.53;;;5.70;100.00
41596;BME280;27283;52.504;13.358;2023-04-08T05:52:10;101913.31;;;5.80;100.00
41596;BME280;27283;52.504;13.358;2023-04-08T05:54:42;101913.19;;;5.81;100.00
41596;BME280;27283;52.504;13.358;2023-04-08T05:57:15;101915.41;;;5.75;100.00
41596;BME280;27283;52.504;13.358;2023-04-08T05:59:47;101913.63;;;5.75;100.00
41596;BME280;27283;52.504;13.358;2023-04-08T06:02:21;101913.69;;;5.61;100.00
41596;BME280;27283;52.504;13.358;2023-04-08T06:04:56;101906.22;;;5.66;100.00
41596;BME280;27283;52.504;13.358;2023-04-08T06:07:29;101909.75;;;5.66;100.00
41596;BME280;27283;52.504;13.358;2023-04-08T06:10:01;101910.06;;;5.49;100.00
41596;BME280;27283;52.504;13.358;2023-04-08T06:12:35;101909.75;;;5.66;100.00
41596;BME280;27283;52.504;13.358;2023-04-08T06:15:08;101918.72;;;5.65;100.00
41596;BME280;27283;52.504;13.358;2023-04-08T06:17:41;101918.75;;;5.78;100.00
41596;BME280;27283;52.504;13.358;2023-04-08T06:20:16;101919.56;;;5.92;100.00
41596;BME280;27283;52.504;13.358;2023-04-08T06:22:48;101918.88;;;6.02;100.00
41596;BME280;27283;52.504;13.358;2023-04-08T06:25:20;101927.19;;;6.11;100.00
41596;BME280;27283;52.504;13.358;2023-04-08T06:27:53;101927.19;;;6.24;100.00
41596;BME280;27283;52.504;13.358;2023-04-08T06:30:25;101927.81;;;6.27;100.00
41596;BME280;27283;52.504;13.358;2023-04-08T06:32:58;101928.03;;;6.24;100.00
41596;BME280;27283;52.504;13.358;2023-04-08T06:35:33;101928.88;;;6.25;100.00
41596;BME280;27283;52.504;13.358;2023-04-08T06:38:06;101932.31;;;6.27;100.00
41596;BME280;27283;52.504;13.358;2023-04-08T06:40:39;101941.06;;;6.42;100.00
41596;BME280;27283;52.504;13.358;2023-04-08T06:43:11;101943.19;;;6.49;100.00
41596;BME280;27283;52.504;13.358;2023-04-08T06:45:44;101957.28;;;6.38;100.00
41596;BME280;27283;52.504;13.358;2023-04-08T06:48:17;101957.91;;;6.55;100.00
41596;BME280;27283;52.504;13.358;2023-04-08T06:50:54;101962.34;;;6.43;100.00
41596;BME280;27283;52.504;13.358;2023-04-08T06:53:27;101969.47;;;6.43;100.00
41596;BME280;27283;52.504;13.358;2023-04-08T06:56:01;101972.25;;;6.54;100.00
41596;BME280;27283;52.504;13.358;2023-04-08T06:58:34;101979.72;;;6.49;100.00
41596;BME280;27283;52.504;13.358;2023-04-08T07:01:07;101971.81;;;6.60;100.00
41596;BME280;27283;52.504;13.358;2023-04-08T07:03:39;101973.59;;;6.60;100.00
41596;BME280;27283;52.504;13.358;2023-04-08T07:06:15;101973.72;;;6.58;100.00
41596;BME280;27283;52.504;13.358;2023-04-08T07:08:47;101982.78;;;6.68;100.00
41596;BME280;27283;52.504;13.358;2023-04-08T07:11:20;101975.66;;;6.69;100.00
41596;BME280;27283;52.504;13.358;2023-04-08T07:13:53;101979.06;;;6.71;100.00
41596;BME280;27283;52.504;13.358;2023-04-08T07:16:25;101975.94;;;6.77;100.00
41596;BME280;27283;52.504;13.358;2023-04-08T07:18:58;101976.75;;;6.90;100.00
41596;BME280;27283;52.504;13.358;2023-04-08T07:21:33;101984.84;;;7.02;100.00
41596;BME280;27283;52.504;13.358;2023-04-08T07:24:06;101989.47;;;7.24;100.00
41596;BME280;27283;52.504;13.358;2023-04-08T07:26:39;101989.84;;;7.31;99.13
41596;BME280;27283;52.504;13.358;2023-04-08T07:29:12;101987.41;;;7.52;97.48
41596;BME280;27283;52.504;13.358;2023-04-08T07:31:44;101983.59;;;7.78;96.36
41596;BME280;27283;52.504;13.358;2023-04-08T07:34:17;102002.28;;;8.03;94.36
41596;BME280;27283;52.504;13.358;2023-04-08T07:36:52;101997.94;;;8.13;93.12
41596;BME280;27283;52.504;13.358;2023-04-08T07:39:24;101994.59;;;7.87;93.92
41596;BME280;27283;52.504;13.358;2023-04-08T07:41:57;102006.16;;;7.98;92.53
41596;BME280;27283;52.504;13.358;2023-04-08T07:44:30;102009.72;;;7.99;93.35
41596;BME280;27283;52.504;13.358;2023-04-08T07:47:02;102009.28;;;7.81;93.67
41596;BME280;27283;52.504;13.358;2023-04-08T07:49:37;102013.69;;;7.82;93.80
41596;BME280;27283;52.504;13.358;2023-04-08T07:52:12;102019.56;;;7.63;94.77
41596;BME280;27283;52.504;13.358;2023-04-08T07:54:45;102023.22;;;7.38;96.66
41596;BME280;27283;52.504;13.358;2023-04-08T07:57:19;102021.56;;;7.24;96.35
41596;BME280;27283;52.504;13.358;2023-04-08T07:59:52;102020.31;;;7.41;96.69
41596;BME280;27283;52.504;13.358;2023-04-08T08:02:25;102018.91;;;7.48;95.47
41596;BME280;27283;52.504;13.358;2023-04-08T08:04:58;102028.88;;;7.46;95.61
41596;BME280;27283;52.504;13.358;2023-04-08T08:07:34;102022.19;;;7.52;96.72
41596;BME280;27283;52.504;13.358;2023-04-08T08:10:08;102031.44;;;7.48;96.32
41596;BME280;27283;52.504;13.358;2023-04-08T08:12:41;102021.19;;;7.41;97.04
41596;BME280;27283;52.504;13.358;2023-04-08T08:15:13;102035.31;;;7.43;96.46
41596;BME280;27283;52.504;13.358;2023-04-08T08:17:46;102026.81;;;7.50;96.54
41596;BME280;27283;52.504;13.358;2023-04-08T08:20:19;102030.00;;;7.79;94.98
41596;BME280;27283;52.504;13.358;2023-04-08T08:22:54;102029.44;;;7.98;93.54
41596;BME280;27283;52.504;13.358;2023-04-08T08:25:26;102023.34;;;8.07;93.72
41596;BME280;27283;52.504;13.358;2023-04-08T08:27:59;102037.53;;;8.21;91.35
41596;BME280;27283;52.504;13.358;2023-04-08T08:30:32;102036.25;;;8.49;89.79
41596;BME280;27283;52.504;13.358;2023-04-08T08:33:07;102036.91;;;8.28;90.37
41596;BME280;27283;52.504;13.358;2023-04-08T08:35:40;102036.50;;;8.46;90.11
41596;BME280;27283;52.504;13.358;2023-04-08T08:38:15;102040.88;;;8.69;89.60
41596;BME280;27283;52.504;13.358;2023-04-08T08:40:53;102041.00;;;9.02;87.67
41596;BME280;27283;52.504;13.358;2023-04-08T08:43:26;102042.81;;;9.13;86.40
41596;BME280;27283;52.504;13.358;2023-04-08T08:46:01;102048.41;;;9.10;86.12
41596;BME280;27283;52.504;13.358;2023-04-08T08:48:36;102060.13;;;9.20;85.11
41596;BME280;27283;52.504;13.358;2023-04-08T08:51:10;102058.06;;;9.12;85.08
41596;BME280;27283;52.504;13.358;2023-04-08T08:53:46;102051.56;;;9.26;85.00
41596;BME280;27283;52.504;13.358;2023-04-08T08:56:19;102054.81;;;9.41;83.85
41596;BME280;27283;52.504;13.358;2023-04-08T08:58:52;102051.28;;;9.40;83.46
41596;BME280;27283;52.504;13.358;2023-04-08T09:01:32;102065.31;;;9.33;83.37
41596;BME280;27283;52.504;13.358;2023-04-08T09:04:11;102058.84;;;9.47;83.71
41596;BME280;27283;52.504;13.358;2023-04-08T09:06:46;102058.47;;;9.40;82.88
41596;BME280;27283;52.504;13.358;2023-04-08T09:09:22;102067.22;;;9.53;83.30
41596;BME280;27283;52.504;13.358;2023-04-08T09:12:02;102072.78;;;9.40;83.94
41596;BME280;27283;52.504;13.358;2023-04-08T09:14:36;102073.25;;;9.34;83.62
41596;BME280;27283;52.504;13.358;2023-04-08T09:17:09;102076.34;;;9.18;84.96
41596;BME280;27283;52.504;13.358;2023-04-08T09:20:03;102082.56;;;9.19;85.12
41596;BME280;27283;52.504;13.358;2023-04-08T09:22:56;102071.50;;;8.90;86.42
41596;BME280;27283;52.504;13.358;2023-04-08T09:25:33;102079.41;;;9.02;86.54
41596;BME280;27283;52.504;13.358;2023-04-08T09:28:31;102084.88;;;9.12;86.20
41596;BME280;27283;52.504;13.358;2023-04-08T09:31:19;102085.59;;;9.14;85.48
41596;BME280;27283;52.504;13.358;2023-04-08T09:33:53;102084.72;;;9.36;85.65
41596;BME280;27283;52.504;13.358;2023-04-08T09:36:26;102091.19;;;9.45;86.24
41596;BME280;27283;52.504;13.358;2023-04-08T09:38:59;102084.56;;;9.61;84.08
41596;BME280;27283;52.504;13.358;2023-04-08T09:41:36;102091.00;;;9.69;82.92
41596;BME280;27283;52.504;13.358;2023-04-08T09:44:10;102092.84;;;9.57;83.38
41596;BME280;27283;52.504;13.358;2023-04-08T09:46:54;102100.41;;;9.52;81.61
41596;BME280;27283;52.504;13.358;2023-04-08T09:49:31;102099.63;;;9.40;82.19
41596;BME280;27283;52.504;13.358;2023-04-08T09:52:20;102101.16;;;9.54;81.88
41596;BME280;27283;52.504;13.358;2023-04-08T09:55:00;102092.03;;;9.46;83.27
41596;BME280;27283;52.504;13.358;2023-04-08T09:57:40;102098.06;;;9.70;84.19
41596;BME280;27283;52.504;13.358;2023-04-08T10:00:14;102106.03;;;9.93;81.46
41596;BME280;27283;52.504;13.358;2023-04-08T10:02:54;102102.63;;;9.91;80.35
41596;BME280;27283;52.504;13.358;2023-04-08T10:05:29;102099.59;;;9.84;80.42
41596;BME280;27283;52.504;13.358;2023-04-08T10:08:02;102096.22;;;10.03;81.00
41596;BME280;27283;52.504;13.358;2023-04-08T10:10:38;102107.22;;;10.54;78.38
41596;BME280;27283;52.504;13.358;2023-04-08T10:13:16;102107.41;;;11.33;75.79
41596;BME280;27283;52.504;13.358;2023-04-08T10:15:50;102112.38;;;11.38;75.47
41596;BME280;27283;52.504;13.358;2023-04-08T10:18:32;102108.63;;;11.80;71.68
41596;BME280;27283;52.504;13.358;2023-04-08T10:21:34;102106.19;;;11.67;72.79
41596;BME280;27283;52.504;13.358;2023-04-08T10:24:08;102107.19;;;11.46;71.50
41596;BME280;27283;52.504;13.358;2023-04-08T10:26:42;102101.78;;;11.56;72.37
41596;BME280;27283;52.504;13.358;2023-04-08T10:29:43;102095.88;;;11.92;70.76
41596;BME280;27283;52.504;13.358;2023-04-08T10:32:28;102098.88;;;12.85;67.13
41596;BME280;27283;52.504;13.358;2023-04-08T10:35:01;102106.09;;;13.22;64.09
41596;BME280;27283;52.504;13.358;2023-04-08T10:37:34;102106.63;;;13.25;66.08
41596;BME280;27283;52.504;13.358;2023-04-08T10:40:08;102093.38;;;13.04;64.70
41596;BME280;27283;52.504;13.358;2023-04-08T10:42:53;102092.28;;;13.25;63.87
41596;BME280;27283;52.504;13.358;2023-04-08T10:45:28;102100.69;;;12.84;64.00
41596;BME280;27283;52.504;13.358;2023-04-08T10:48:15;102095.31;;;12.27;67.17
41596;BME280;27283;52.504;13.358;2023-04-08T10:50:52;102099.28;;;11.84;67.21
41596;BME280;27283;52.504;13.358;2023-04-08T10:53:26;102101.25;;;11.82;66.82
41596;BME280;27283;52.504;13.358;2023-04-08T10:56:06;102108.81;;;11.98;66.59
41596;BME280;27283;52.504;13.358;2023-04-08T10:58:48;102107.94;;;11.78;67.38
41596;BME280;27283;52.504;13.358;2023-04-08T11:01:37;102098.13;;;11.77;65.65
41596;BME280;27283;52.504;13.358;2023-04-08T11:04:15;102096.72;;;11.82;66.82
41596;BME280;27283;52.504;13.358;2023-04-08T11:06:49;102105.22;;;11.68;66.07
41596;BME280;27283;52.504;13.358;2023-04-08T11:09:22;102094.47;;;11.78;65.17
41596;BME280;27283;52.504;13.358;2023-04-08T11:11:54;102102.09;;;11.92;65.01
41596;BME280;27283;52.504;13.358;2023-04-08T11:14:26;102102.03;;;12.03;65.19
41596;BME280;27283;52.504;13.358;2023-04-08T11:17:03;102101.16;;;12.13;66.84
41596;BME280;27283;52.504;13.358;2023-04-08T11:19:37;102100.28;;;12.22;66.07
41596;BME280;27283;52.504;13.358;2023-04-08T11:22:11;102104.84;;;12.12;64.63
41596;BME280;27283;52.504;13.358;2023-04-08T11:24:44;102105.28;;;11.97;63.92
41596;BME280;27283;52.504;13.358;2023-04-08T11:27:16;102106.84;;;12.10;64.21
41596;BME280;27283;52.504;13.358;2023-04-08T11:29:49;102099.13;;;11.76;67.22
41596;BME280;27283;52.504;13.358;2023-04-08T11:32:24;102105.94;;;11.89;65.94
41596;BME280;27283;52.504;13.358;2023-04-08T11:34:59;102112.06;;;11.92;63.13
41596;BME280;27283;52.504;13.358;2023-04-08T11:37:41;102110.22;;;12.12;63.16
41596;BME280;27283;52.504;13.358;2023-04-08T11:40:20;102110.25;;;12.21;63.96
41596;BME280;27283;52.504;13.358;2023-04-08T11:42:52;102111.78;;;12.24;62.52
41596;BME280;27283;52.504;13.358;2023-04-08T11:45:25;102108.38;;;12.22;62.84
41596;BME280;27283;52.504;13.358;2023-04-08T11:47:59;102108.34;;;12.41;61.82
41596;BME280;27283;52.504;13.358;2023-04-08T11:50:40;102094.97;;;12.59;58.70
41596;BME280;27283;52.504;13.358;2023-04-08T11:53:16;102097.22;;;12.64;59.41
41596;BME280;27283;52.504;13.358;2023-04-08T11:56:15;102102.09;;;12.51;59.25
41596;BME280;27283;52.504;13.358;2023-04-08T11:58:48;102103.25;;;12.38;58.82
41596;BME280;27283;52.504;13.358;2023-04-08T12:01:21;102102.69;;;12.25;59.16
41596;BME280;27283;52.504;13.358;2023-04-08T12:03:58;102102.03;;;12.03;60.94
41596;BME280;27283;52.504;13.358;2023-04-08T12:06:31;102103.72;;;12.14;60.96
41596;BME280;27283;52.504;13.358;2023-04-08T12:09:03;102100.84;;;12.26;60.85
41596;BME280;27283;52.504;13.358;2023-04-08T12:11:36;102097.84;;;12.38;61.19
41596;BME280;27283;52.504;13.358;2023-04-08T12:14:07;102099.03;;;12.73;61.41
41596;BME280;27283;52.504;13.358;2023-04-08T12:16:40;102103.81;;;12.42;62.43
41596;BME280;27283;52.504;13.358;2023-04-08T12:19:15;102100.56;;;12.38;61.82
41596;BME280;27283;52.504;13.358;2023-04-08T12:21:47;102098.59;;;12.11;62.95
41596;BME280;27283;52.504;13.358;2023-04-08T12:24:19;102101.00;;;12.14;63.42
41596;BME280;27283;52.504;13.358;2023-04-08T12:26:52;102105.41;;;12.25;61.14
41596;BME280;27283;52.504;13.358;2023-04-08T12:29:25;102103.41;;;12.08;59.88
41596;BME280;27283;52.504;13.358;2023-04-08T12:31:57;102100.97;;;12.24;59.87
41596;BME280;27283;52.504;13.358;2023-04-08T12:34:33;102108.47;;;12.59;59.65
41596;BME280;27283;52.504;13.358;2023-04-08T12:37:05;102116.00;;;12.46;58.96
41596;BME280;27283;52.504;13.358;2023-04-08T12:39:37;102115.88;;;12.48;59.27
41596;BME280;27283;52.504;13.358;2023-04-08T12:42:13;102109.91;;;12.44;58.22
41596;BME280;27283;52.504;13.358;2023-04-08T12:44:45;102093.31;;;12.39;58.03
41596;BME280;27283;52.504;13.358;2023-04-08T12:47:18;102085.16;;;12.58;56.56
41596;BME280;27283;52.504;13.358;2023-04-08T12:49:56;102095.88;;;12.88;55.89
41596;BME280;27283;52.504;13.358;2023-04-08T12:52:28;102100.84;;;12.83;55.99
41596;BME280;27283;52.504;13.358;2023-04-08T12:55:01;102091.97;;;12.63;56.21
41596;BME280;27283;52.504;13.358;2023-04-08T12:57:33;102091.59;;;12.48;56.14
41596;BME280;27283;52.504;13.358;2023-04-08T13:00:07;102092.31;;;12.30;56.28
41596;BME280;27283;52.504;13.358;2023-04-08T13:02:40;102092.31;;;12.40;55.55
41596;BME280;27283;52.504;13.358;2023-04-08T13:05:15;102083.97;;;12.71;54.62
41596;BME280;27283;52.504;13.358;2023-04-08T13:08:00;102082.03;;;12.63;52.55
41596;BME280;27283;52.504;13.358;2023-04-08T13:10:33;102078.72;;;12.79;51.82
41596;BME280;27283;52.504;13.358;2023-04-08T13:13:05;102071.75;;;13.04;51.50
41596;BME280;27283;52.504;13.358;2023-04-08T13:15:42;102066.78;;;13.37;51.35
41596;BME280;27283;52.504;13.358;2023-04-08T13:18:15;102070.50;;;13.36;51.50
41596;BME280;27283;52.504;13.358;2023-04-08T13:20:50;102076.56;;;12.83;52.50
41596;BME280;27283;52.504;13.358;2023-04-08T13:23:22;102074.03;;;13.09;53.24